createdAt,value
2023-12-01T00:02:00.445Z,1228.67
2023-12-01T00:04:27.542Z,1247.90
2023-12-01T00:06:54.503Z,1224.00
2023-12-01T00:09:21.391Z,1233.28
2023-12-01T00:11:48.275Z,1240.72
2023-12-01T00:14:15.057Z,1242.57
2023-12-01T00:16:41.929Z,1278.45
2023-12-01T00:19:08.844Z,1244.47
2023-12-01T00:21:35.839Z,1226.75
2023-12-01T00:24:03.488Z,1226.95
2023-12-01T00:26:30.400Z,1227.60
2023-12-01T00:28:59.849Z,1227.82
2023-12-01T00:31:27.746Z,1225.57
2023-12-01T00:33:54.705Z,1213.93
2023-12-01T00:36:21.567Z,1233.60
2023-12-01T00:38:48.365Z,1234.50
2023-12-01T00:41:16.298Z,1265.13
2023-12-01T00:43:43.206Z,1252.60
2023-12-01T00:46:10.144Z,1244.03
2023-12-01T00:48:37.208Z,1243.53
2023-12-01T00:51:05.579Z,1245.03
2023-12-01T00:53:32.461Z,1237.25
2023-12-01T00:55:59.354Z,1237.00
2023-12-01T00:58:27.348Z,1236.07
2023-12-01T01:00:54.332Z,1236.68
2023-12-01T01:03:21.330Z,1237.00
2023-12-01T01:05:48.315Z,1239.90
2023-12-01T01:08:15.322Z,1233.45
2023-12-01T01:10:43.271Z,1233.95
2023-12-01T01:13:12.114Z,1233.30
2023-12-01T01:15:39.057Z,1244.00
2023-12-01T01:18:07.586Z,1242.63
2023-12-01T01:20:34.377Z,1241.60
2023-12-01T01:23:01.381Z,1243.22
2023-12-01T01:25:28.320Z,1242.00
2023-12-01T01:27:55.201Z,1244.93
2023-12-01T01:30:22.097Z,1241.90
2023-12-01T01:32:49.396Z,1239.35
2023-12-01T01:35:17.050Z,1241.45
2023-12-01T01:37:44.993Z,1239.37
2023-12-01T01:40:15.232Z,1237.47
2023-12-01T01:42:42.081Z,1232.90
2023-12-01T01:45:09.377Z,1230.85
2023-12-01T01:47:37.159Z,1287.30
2023-12-01T01:50:05.253Z,1282.82
2023-12-01T01:52:32.184Z,1301.03
2023-12-01T01:54:59.123Z,1276.37
2023-12-01T01:57:26.402Z,1277.13
2023-12-01T01:59:55.368Z,1282.77
2023-12-01T02:02:24.332Z,1277.47
2023-12-01T02:04:54.636Z,1295.57
2023-12-01T02:07:29.409Z,1257.13
2023-12-01T02:09:56.737Z,1245.18
2023-12-01T02:12:23.657Z,1241.15
2023-12-01T02:14:51.665Z,1241.32
2023-12-01T02:17:20.510Z,1237.40
2023-12-01T02:19:47.329Z,1238.43
2023-12-01T02:22:14.124Z,1240.18
2023-12-01T02:24:42.082Z,1239.13
2023-12-01T02:27:08.872Z,1237.95
2023-12-01T02:29:35.708Z,1238.65
2023-12-01T02:32:02.807Z,1241.37
2023-12-01T02:34:29.707Z,1242.67
2023-12-01T02:36:59.712Z,1240.18
2023-12-01T02:39:26.950Z,1246.13
2023-12-01T02:41:53.860Z,1241.93
2023-12-01T02:44:20.953Z,1241.18
2023-12-01T02:46:47.904Z,1238.75
2023-12-01T02:49:15.951Z,1237.38
2023-12-01T02:51:42.856Z,1238.38
2023-12-01T02:54:10.751Z,1269.43
2023-12-01T02:56:37.643Z,1236.38
2023-12-01T02:59:04.440Z,1236.72
2023-12-01T03:01:32.465Z,1258.28
2023-12-01T03:03:59.517Z,1256.20
2023-12-01T03:06:26.334Z,1255.50
2023-12-01T03:08:54.209Z,1263.55
2023-12-01T03:11:25.239Z,1254.90
2023-12-01T03:13:52.243Z,1257.18
2023-12-01T03:16:19.139Z,1256.43
2023-12-01T03:18:46.099Z,1273.60
2023-12-01T03:21:14.338Z,1255.95
2023-12-01T03:23:42.260Z,1253.43
2023-12-01T03:26:09.230Z,1253.72
2023-12-01T03:28:36.278Z,1250.50
2023-12-01T03:31:03.884Z,1245.50
2023-12-01T03:33:32.010Z,1243.35
2023-12-01T03:35:58.973Z,1241.32
2023-12-01T03:38:25.908Z,1238.70
2023-12-01T03:40:54.331Z,1237.20
2023-12-01T03:43:22.319Z,1235.18
2023-12-01T03:45:49.196Z,1234.25
2023-12-01T03:48:16.066Z,1234.65
2023-12-01T03:50:43.041Z,1232.22
2023-12-01T03:53:09.955Z,1226.85
2023-12-01T03:55:36.925Z,1227.93
2023-12-01T03:58:04.250Z,1227.37
2023-12-01T04:00:33.846Z,1226.03
2023-12-01T04:03:00.929Z,1226.55
2023-12-01T04:05:27.892Z,1271.72
2023-12-01T04:08:00.440Z,1244.93
2023-12-01T04:10:28.810Z,1239.90
2023-12-01T04:12:57.441Z,1246.68
2023-12-01T04:15:28.537Z,1247.05
2023-12-01T04:17:59.762Z,1250.63
2023-12-01T04:20:29.301Z,1251.90
2023-12-01T04:23:01.805Z,1250.03
2023-12-01T04:25:29.515Z,1246.55
2023-12-01T04:28:00.438Z,1245.30
2023-12-01T04:30:28.674Z,1244.07
2023-12-01T04:32:58.059Z,1240.78
2023-12-01T04:35:28.647Z,1242.03
2023-12-01T04:37:58.182Z,1240.53
2023-12-01T04:40:25.812Z,1240.15
2023-12-01T04:42:53.427Z,1236.50
2023-12-01T04:45:21.748Z,1236.57
2023-12-01T04:47:53.240Z,1236.28
2023-12-01T04:50:27.887Z,1235.30
2023-12-01T04:53:03.898Z,1233.30
2023-12-01T04:55:31.849Z,1232.47
2023-12-01T04:58:01.499Z,1228.93
2023-12-01T05:00:29.594Z,1229.40
2023-12-01T05:02:58.496Z,1248.40
2023-12-01T05:05:27.829Z,1246.85
2023-12-01T05:08:02.925Z,1242.70
2023-12-01T05:10:31.487Z,1240.60
2023-12-01T05:13:01.263Z,1236.60
2023-12-01T05:15:31.532Z,1234.25
2023-12-01T05:17:59.753Z,1234.50
2023-12-01T05:20:28.814Z,1231.15
2023-12-01T05:23:00.615Z,1230.22
2023-12-01T05:25:34.230Z,1229.10
2023-12-01T05:28:03.919Z,1223.60
2023-12-01T05:30:44.471Z,1222.80
2023-12-01T05:33:11.467Z,1225.90
2023-12-01T05:35:39.812Z,1220.00
2023-12-01T05:38:10.726Z,1216.10
2023-12-01T05:40:38.705Z,1280.95
2023-12-01T05:43:08.572Z,1251.93
2023-12-01T05:45:39.079Z,1236.22
2023-12-01T05:48:09.601Z,1238.82
2023-12-01T05:50:37.811Z,1235.43
2023-12-01T05:53:12.327Z,1234.63
2023-12-01T05:55:39.392Z,1233.80
2023-12-01T05:58:11.141Z,1233.10
2023-12-01T06:00:41.469Z,1235.30
2023-12-01T06:03:10.727Z,1233.40
2023-12-01T06:05:38.885Z,1234.17
2023-12-01T06:08:07.043Z,1231.30
2023-12-01T06:10:34.576Z,1232.13
2023-12-01T06:13:02.943Z,1233.18
2023-12-01T06:15:35.756Z,1233.60
2023-12-01T06:18:03.705Z,1232.80
2023-12-01T06:20:33.350Z,1232.37
2023-12-01T06:23:02.971Z,1231.38
2023-12-01T06:25:34.055Z,1231.22
2023-12-01T06:28:05.683Z,1228.85
2023-12-01T06:30:37.905Z,1228.85
2023-12-01T06:33:10.127Z,1227.28
2023-12-01T06:35:37.482Z,1228.65
2023-12-01T06:38:05.346Z,1224.78
2023-12-01T06:40:34.401Z,1225.43
2023-12-01T06:43:11.226Z,1220.15
2023-12-01T06:45:39.304Z,1223.30
2023-12-01T06:48:06.404Z,1221.77
2023-12-01T06:50:34.548Z,1221.17
2023-12-01T06:53:02.279Z,1220.10
2023-12-01T06:55:30.043Z,1216.03
2023-12-01T06:57:57.480Z,1219.18
2023-12-01T07:00:31.801Z,1221.80
2023-12-01T07:03:08.966Z,1221.10
2023-12-01T07:05:38.770Z,1219.25
2023-12-01T07:08:14.572Z,1220.47
2023-12-01T07:10:43.382Z,1221.78
2023-12-01T07:13:11.373Z,1220.93
2023-12-01T07:15:38.946Z,1220.88
2023-12-01T07:18:07.938Z,1220.30
2023-12-01T07:20:35.097Z,1220.28
2023-12-01T07:23:06.871Z,1219.60
2023-12-01T07:25:34.896Z,1219.88
2023-12-01T07:28:04.218Z,1220.28
2023-12-01T07:30:32.486Z,1217.57
2023-12-01T07:33:01.881Z,1217.20
2023-12-01T07:35:30.163Z,1220.10
2023-12-01T07:38:00.315Z,1220.18
2023-12-01T07:40:29.360Z,1217.72
2023-12-01T07:43:04.111Z,1214.88
2023-12-01T07:45:32.473Z,1214.13
2023-12-01T07:48:00.550Z,1217.20
2023-12-01T07:50:28.914Z,1217.10
2023-12-01T07:52:56.478Z,1218.47
2023-12-01T07:55:25.183Z,1215.03
2023-12-01T07:57:53.289Z,1217.18
2023-12-01T08:00:20.366Z,1218.13
2023-12-01T08:02:52.969Z,1215.25
2023-12-01T08:05:22.313Z,1215.05
2023-12-01T08:07:54.924Z,1212.82
2023-12-01T08:10:25.342Z,1214.50
2023-12-01T08:12:57.310Z,1216.78
2023-12-01T08:15:29.605Z,1215.18
2023-12-01T08:18:00.680Z,1213.90
2023-12-01T08:20:33.513Z,1210.32
2023-12-01T08:23:01.350Z,1212.70
2023-12-01T08:25:30.058Z,1211.72
2023-12-01T08:27:56.927Z,1212.47
2023-12-01T08:30:34.118Z,1212.40
2023-12-01T08:33:03.188Z,1232.28
2023-12-01T08:35:39.350Z,1237.90
2023-12-01T08:38:59.035Z,1247.35
2023-12-01T08:41:33.293Z,1245.95
2023-12-01T08:44:07.837Z,1246.40
2023-12-01T08:46:35.770Z,1242.30
2023-12-01T08:49:03.715Z,1237.32
2023-12-01T08:51:30.557Z,1236.47
2023-12-01T08:53:58.160Z,1236.80
2023-12-01T08:56:30.838Z,1235.60
2023-12-01T08:58:57.736Z,1235.85
2023-12-01T09:01:24.700Z,1231.35
2023-12-01T09:03:51.845Z,1232.97
2023-12-01T09:06:19.040Z,1226.82
2023-12-01T09:08:47.030Z,1225.53
2023-12-01T09:11:14.037Z,1225.40
2023-12-01T09:13:44.182Z,1273.53
2023-12-01T09:16:11.315Z,1283.45
2023-12-01T09:18:38.418Z,1257.25
2023-12-01T09:21:05.834Z,1248.30
2023-12-01T09:23:33.293Z,1246.05
2023-12-01T09:26:00.227Z,1244.70
2023-12-01T09:28:27.100Z,1242.28
2023-12-01T09:30:54.085Z,1260.20
2023-12-01T09:33:22.138Z,1258.88
2023-12-01T09:35:56.024Z,1240.13
2023-12-01T09:38:26.280Z,1236.10
2023-12-01T09:40:53.445Z,1229.25
2023-12-01T09:43:20.846Z,1245.00
2023-12-01T09:45:49.378Z,1239.13
2023-12-01T09:48:19.946Z,1232.55
2023-12-01T09:50:49.960Z,1225.10
2023-12-01T09:53:20.489Z,1231.30
2023-12-01T09:55:47.586Z,1231.80
2023-12-01T09:58:16.334Z,1235.03
2023-12-01T10:00:49.112Z,1233.93
2023-12-01T10:03:17.198Z,1231.05
2023-12-01T10:05:44.549Z,1233.03
2023-12-01T10:08:12.879Z,1233.57
2023-12-01T10:10:40.162Z,1233.00
2023-12-01T10:13:08.938Z,1233.60
2023-12-01T10:15:41.074Z,1232.37
2023-12-01T10:18:20.493Z,1233.05
2023-12-01T10:21:05.576Z,1233.63
2023-12-01T10:23:34.925Z,1235.82
2023-12-01T10:26:07.857Z,1229.22
2023-12-01T10:28:41.596Z,1228.27
2023-12-01T10:31:09.147Z,1227.38
2023-12-01T10:33:37.689Z,1226.87
2023-12-01T10:36:06.135Z,1222.93
2023-12-01T10:38:34.474Z,1224.38
2023-12-01T10:41:04.503Z,1248.47
2023-12-01T10:43:33.527Z,1246.40
2023-12-01T10:46:06.477Z,1242.35
2023-12-01T10:48:36.475Z,1244.45
2023-12-01T10:51:07.544Z,1243.78
2023-12-01T10:53:36.604Z,1234.35
2023-12-01T10:56:05.526Z,1227.53
2023-12-01T10:58:37.431Z,1230.10
2023-12-01T11:01:05.612Z,1228.93
2023-12-01T11:03:33.550Z,1230.18
2023-12-01T11:06:04.248Z,1234.07
2023-12-01T11:08:56.381Z,1234.75
2023-12-01T11:11:54.793Z,1238.18
2023-12-01T11:14:25.484Z,1232.65
2023-12-01T11:16:54.377Z,1233.50
2023-12-01T11:19:24.991Z,1238.53
2023-12-01T11:21:58.184Z,1234.85
2023-12-01T11:24:32.924Z,1231.15
2023-12-01T11:27:08.675Z,1230.35
2023-12-01T11:29:37.706Z,1231.13
2023-12-01T11:32:06.274Z,1231.38
2023-12-01T11:34:33.751Z,1228.85
2023-12-01T11:37:06.583Z,1229.72
2023-12-01T11:39:35.488Z,1226.33
2023-12-01T11:42:03.332Z,1224.97
2023-12-01T11:44:39.786Z,1223.45
2023-12-01T11:47:10.050Z,1221.40
2023-12-01T11:49:40.087Z,1226.18
2023-12-01T11:52:14.531Z,1226.63
2023-12-01T11:54:42.835Z,1223.37
2023-12-01T11:57:13.687Z,1224.65
2023-12-01T11:59:40.897Z,1232.70
2023-12-01T12:02:09.064Z,1232.47
2023-12-01T12:04:40.770Z,1232.60
2023-12-01T12:07:07.795Z,1230.53
2023-12-01T12:09:38.696Z,1228.88
2023-12-01T12:12:11.472Z,1229.53
2023-12-01T12:14:39.793Z,1228.82
2023-12-01T12:17:07.729Z,1228.55
2023-12-01T12:19:50.492Z,1228.63
2023-12-01T12:22:21.945Z,1229.10
2023-12-01T12:24:51.670Z,1229.07
2023-12-01T12:27:18.749Z,1226.95
2023-12-01T12:29:46.778Z,1228.63
2023-12-01T12:32:19.766Z,1226.53
2023-12-01T12:34:47.841Z,1227.15
2023-12-01T12:37:17.048Z,1227.85
2023-12-01T12:39:52.023Z,1224.88
2023-12-01T12:42:20.042Z,1225.30
2023-12-01T12:44:47.351Z,1228.10
2023-12-01T12:47:16.654Z,1225.07
2023-12-01T12:49:46.624Z,1223.00
2023-12-01T12:52:14.554Z,1221.65
2023-12-01T12:54:44.922Z,1222.82
2023-12-01T12:57:13.007Z,1221.47
2023-12-01T12:59:43.778Z,1223.18
2023-12-01T13:02:10.980Z,1222.53
2023-12-01T13:04:38.909Z,1222.57
2023-12-01T13:07:08.976Z,1224.55
2023-12-01T13:09:36.081Z,1218.53
2023-12-01T13:12:22.142Z,1216.05
2023-12-01T13:14:49.138Z,1215.32
2023-12-01T13:17:16.081Z,1211.15
2023-12-01T13:19:44.317Z,1215.13
2023-12-01T13:22:11.290Z,1213.93
2023-12-01T13:24:44.332Z,1213.65
2023-12-01T13:27:13.829Z,1217.13
2023-12-01T13:29:44.630Z,1216.35
2023-12-01T13:32:21.382Z,1212.68
2023-12-01T13:34:49.315Z,1244.22
2023-12-01T13:37:17.376Z,1093.32
2023-12-01T13:39:50.030Z,1067.70
2023-12-01T13:42:18.076Z,1065.65
2023-12-01T13:44:52.570Z,1083.97
2023-12-01T13:47:20.761Z,1076.82
2023-12-01T13:49:53.788Z,1084.47
2023-12-01T13:52:21.858Z,1038.95
2023-12-01T13:54:50.799Z,1062.50
2023-12-01T13:57:18.156Z,1070.67
2023-12-01T13:59:46.698Z,1062.43
2023-12-01T14:02:18.880Z,1068.18
2023-12-01T14:04:48.320Z,1072.00
2023-12-01T14:07:17.447Z,1075.43
2023-12-01T14:09:46.429Z,1072.25
2023-12-01T14:12:19.466Z,1069.97
2023-12-01T14:14:48.934Z,1079.20
2023-12-01T14:17:16.918Z,1080.78
2023-12-01T14:19:45.195Z,1032.10
2023-12-01T14:22:14.331Z,1007.42
2023-12-01T14:24:41.734Z,936.73
2023-12-01T14:27:13.166Z,849.10
2023-12-01T14:29:42.310Z,808.28
2023-12-01T14:32:17.969Z,849.83
2023-12-01T14:34:51.329Z,966.38
2023-12-01T14:37:22.560Z,738.13
2023-12-01T14:39:49.463Z,827.27
2023-12-01T14:42:16.563Z,973.13
2023-12-01T14:44:44.559Z,893.10
2023-12-01T14:47:11.443Z,957.10
2023-12-01T14:49:38.740Z,699.28
2023-12-01T14:52:05.967Z,701.08
2023-12-01T14:54:35.534Z,697.90
2023-12-01T14:57:02.493Z,722.75
2023-12-01T14:59:30.556Z,748.15
2023-12-01T15:01:57.632Z,780.47
2023-12-01T15:04:25.110Z,860.28
2023-12-01T15:06:52.057Z,837.65
2023-12-01T15:09:21.082Z,1185.05
2023-12-01T15:11:51.486Z,1231.35
2023-12-01T15:14:18.811Z,1228.17
2023-12-01T15:16:45.666Z,1211.63
2023-12-01T15:19:12.679Z,1252.03
2023-12-01T15:21:42.387Z,1254.13
2023-12-01T15:24:09.532Z,1247.20
2023-12-01T15:26:36.743Z,1255.78
2023-12-01T15:29:04.101Z,1261.20
2023-12-01T15:31:31.482Z,1258.17
2023-12-01T15:33:58.486Z,1256.65
2023-12-01T15:36:25.591Z,1255.53
2023-12-01T15:38:52.764Z,1256.30
2023-12-01T15:41:19.893Z,1256.85
2023-12-01T15:43:47.706Z,1251.72
2023-12-01T15:46:14.604Z,1253.43
2023-12-01T15:48:44.685Z,1253.15
2023-12-01T15:51:12.181Z,1252.00
2023-12-01T15:53:39.109Z,1250.93
2023-12-01T15:56:06.424Z,1251.70
2023-12-01T15:58:33.467Z,1254.80
2023-12-01T16:01:00.674Z,1394.55
2023-12-01T16:03:27.745Z,1331.50
2023-12-01T16:05:57.299Z,1321.70
2023-12-01T16:08:25.307Z,1277.90
2023-12-01T16:10:53.401Z,1273.45
2023-12-01T16:13:20.308Z,1250.25
2023-12-01T16:15:48.329Z,1248.68
2023-12-01T16:18:15.414Z,1244.85
2023-12-01T16:20:44.224Z,1244.82
2023-12-01T16:23:11.426Z,1244.80
2023-12-01T16:25:38.410Z,1241.43
2023-12-01T16:28:05.649Z,1240.82
2023-12-01T16:30:33.566Z,1241.83
2023-12-01T16:33:00.549Z,1241.13
2023-12-01T16:35:29.081Z,1244.70
2023-12-01T16:37:56.154Z,1262.72
2023-12-01T16:40:23.258Z,1253.37
2023-12-01T16:42:52.592Z,1248.93
2023-12-01T16:45:20.825Z,1249.10
2023-12-01T16:47:48.839Z,1247.70
2023-12-01T16:50:17.090Z,1246.63
2023-12-01T16:52:44.034Z,1245.82
2023-12-01T16:55:12.965Z,1244.50
2023-12-01T16:57:43.049Z,1241.22
2023-12-01T17:00:11.636Z,1237.18
2023-12-01T17:02:39.716Z,1237.95
2023-12-01T17:05:07.246Z,1232.55
2023-12-01T17:07:34.226Z,1234.88
2023-12-01T17:10:01.218Z,1229.95
2023-12-01T17:12:28.150Z,1229.25
2023-12-01T17:14:56.118Z,1231.88
2023-12-01T17:17:23.073Z,1275.33
2023-12-01T17:19:50.086Z,1264.25
2023-12-01T17:22:16.988Z,1249.80
2023-12-01T17:24:44.044Z,1247.28
2023-12-01T17:27:12.846Z,1246.70
2023-12-01T17:29:41.721Z,1247.55
2023-12-01T17:32:09.707Z,1242.63
2023-12-01T17:34:37.752Z,1242.60
2023-12-01T17:37:04.971Z,1242.53
2023-12-01T17:39:32.436Z,1239.83
2023-12-01T17:41:59.585Z,1250.20
2023-12-01T17:44:26.868Z,1224.00
2023-12-01T17:46:53.913Z,1224.43
2023-12-01T17:49:21.590Z,1239.82
2023-12-01T17:51:49.242Z,1293.70
2023-12-01T17:54:16.188Z,1268.20
2023-12-01T17:56:44.165Z,1271.03
2023-12-01T17:59:11.111Z,1269.55
2023-12-01T18:01:38.727Z,1256.72
2023-12-01T18:04:06.236Z,1257.60
2023-12-01T18:06:36.300Z,1253.47
2023-12-01T18:09:04.048Z,1252.30
2023-12-01T18:11:30.993Z,1255.45
2023-12-01T18:13:58.002Z,1255.45
2023-12-01T18:16:24.975Z,1254.30
2023-12-01T18:18:52.906Z,1253.40
2023-12-01T18:21:20.885Z,1254.88
2023-12-01T18:23:48.106Z,1255.65
2023-12-01T18:26:15.068Z,1255.60
2023-12-01T18:28:43.151Z,1247.78
2023-12-01T18:31:10.161Z,1235.32
2023-12-01T18:33:37.221Z,1238.50
2023-12-01T18:36:04.474Z,1236.25
2023-12-01T18:38:31.400Z,1239.45
2023-12-01T18:40:58.559Z,1239.22
2023-12-01T18:43:26.446Z,1242.20
2023-12-01T18:45:55.304Z,1247.97
2023-12-01T18:48:23.748Z,1251.03
2023-12-01T18:50:51.615Z,1247.38
2023-12-01T18:53:18.674Z,1242.45
2023-12-01T18:55:45.510Z,1245.13
2023-12-01T18:58:12.366Z,1246.35
2023-12-01T19:00:39.331Z,1251.20
2023-12-01T19:03:06.324Z,1254.25
2023-12-01T19:05:33.326Z,1256.15
2023-12-01T19:08:00.207Z,1250.03
2023-12-01T19:10:27.163Z,1260.00
2023-12-01T19:12:54.016Z,1259.57
2023-12-01T19:15:21.234Z,1246.10
2023-12-01T19:17:48.298Z,1270.55
2023-12-01T19:20:16.377Z,1270.45
2023-12-01T19:22:44.336Z,1283.57
2023-12-01T19:25:11.283Z,1287.28
2023-12-01T19:27:38.082Z,1247.75
2023-12-01T19:30:05.893Z,1250.97
2023-12-01T19:32:36.840Z,1252.38
2023-12-01T19:35:04.223Z,1252.25
2023-12-01T19:37:32.115Z,1251.03
2023-12-01T19:39:59.090Z,1251.75
2023-12-01T19:42:26.091Z,1253.57
2023-12-01T19:44:53.110Z,1254.70
2023-12-01T19:47:19.978Z,1275.18
2023-12-01T19:49:47.004Z,1264.32
2023-12-01T19:52:13.933Z,1253.37
2023-12-01T19:54:41.849Z,1254.85
2023-12-01T19:57:08.746Z,1259.78
2023-12-01T19:59:35.599Z,1260.25
2023-12-01T20:02:03.686Z,1258.28
2023-12-01T20:04:30.660Z,1260.20
2023-12-01T20:06:57.588Z,1265.60
2023-12-01T20:09:24.630Z,1259.93
2023-12-01T20:11:51.991Z,1253.63
2023-12-01T20:14:19.451Z,1255.90
2023-12-01T20:16:46.421Z,1258.82
2023-12-01T20:19:13.877Z,1280.82
2023-12-01T20:21:40.895Z,1274.72
2023-12-01T20:24:09.760Z,1277.70
2023-12-01T20:26:36.922Z,1253.72
2023-12-01T20:29:04.518Z,1245.68
2023-12-01T20:31:31.487Z,1243.53
2023-12-01T20:33:58.465Z,1250.40
2023-12-01T20:36:27.409Z,1281.53
2023-12-01T20:38:54.496Z,1269.65
2023-12-01T20:41:21.366Z,1253.28
2023-12-01T20:43:48.296Z,1249.32
2023-12-01T20:46:16.658Z,1238.10
2023-12-01T20:48:44.530Z,1284.82
2023-12-01T20:51:18.207Z,1265.43
2023-12-01T20:53:45.273Z,1270.10
2023-12-01T20:56:12.484Z,1274.67
2023-12-01T20:58:39.492Z,1330.00
2023-12-01T21:01:07.233Z,1276.07
2023-12-01T21:03:34.368Z,1285.15
2023-12-01T21:06:01.611Z,1305.72
2023-12-01T21:08:28.546Z,1295.70
2023-12-01T21:10:55.558Z,1303.45
2023-12-01T21:13:22.486Z,1303.05
2023-12-01T21:15:50.009Z,1300.38
2023-12-01T21:18:17.077Z,1221.28
2023-12-01T21:20:44.077Z,1227.45
2023-12-01T21:23:11.001Z,1225.30
2023-12-01T21:25:37.935Z,1269.30
2023-12-01T21:28:04.932Z,1245.68
2023-12-01T21:30:33.239Z,1212.97
2023-12-01T21:33:00.205Z,1227.60
2023-12-01T21:35:27.230Z,1255.47
2023-12-01T21:37:54.064Z,1258.55
2023-12-01T21:40:21.488Z,1229.45
2023-12-01T21:42:48.610Z,1250.85
2023-12-01T21:45:15.529Z,1245.72
2023-12-01T21:47:42.528Z,1284.20
2023-12-01T21:50:10.217Z,1298.07
2023-12-01T21:52:37.652Z,1212.57
2023-12-01T21:55:05.126Z,1211.15
2023-12-01T21:57:32.048Z,1197.95
2023-12-01T21:59:59.898Z,1201.60
2023-12-01T22:02:27.386Z,1203.87
2023-12-01T22:04:55.363Z,1203.13
2023-12-01T22:07:22.442Z,1243.78
2023-12-01T22:09:49.308Z,1250.95
2023-12-01T22:12:16.162Z,1251.90
2023-12-01T22:14:46.767Z,1248.95
2023-12-01T22:17:13.703Z,1247.00
2023-12-01T22:19:40.611Z,1246.00
2023-12-01T22:22:07.703Z,1246.18
2023-12-01T22:24:45.681Z,1249.00
2023-12-01T22:27:12.741Z,1250.35
2023-12-01T22:29:39.662Z,1252.38
2023-12-01T22:32:06.926Z,1247.65
2023-12-01T22:34:33.821Z,1206.53
2023-12-01T22:37:00.853Z,1217.13
2023-12-01T22:39:30.170Z,1232.60
2023-12-01T22:41:57.344Z,1249.72
2023-12-01T22:44:25.047Z,1249.95
2023-12-01T22:46:56.021Z,1253.50
2023-12-01T22:49:22.992Z,1244.07
2023-12-01T22:51:50.073Z,1249.18
2023-12-01T22:54:17.305Z,1251.63
2023-12-01T22:56:44.207Z,1255.88
2023-12-01T22:59:11.434Z,1251.97
2023-12-01T23:01:38.432Z,1251.38
2023-12-01T23:04:05.890Z,1250.57
2023-12-01T23:06:33.194Z,1252.85
2023-12-01T23:09:00.331Z,1252.95
2023-12-01T23:11:27.292Z,1249.47
2023-12-01T23:13:54.506Z,1250.35
2023-12-01T23:16:21.359Z,1248.53
2023-12-01T23:18:48.496Z,1253.50
2023-12-01T23:21:15.923Z,1252.03
2023-12-01T23:23:43.304Z,1251.00
2023-12-01T23:26:10.206Z,1252.75
2023-12-01T23:28:37.189Z,1256.30
2023-12-01T23:31:04.192Z,1263.32
2023-12-01T23:33:31.184Z,1260.15
2023-12-01T23:35:58.153Z,1248.43
2023-12-01T23:38:24.962Z,1246.53
2023-12-01T23:40:52.883Z,1241.57
2023-12-01T23:43:19.804Z,1243.38
2023-12-01T23:45:46.617Z,1243.20
2023-12-01T23:48:13.714Z,1243.45
2023-12-01T23:50:40.656Z,1242.85
2023-12-01T23:53:07.603Z,1243.68
2023-12-01T23:55:34.551Z,1240.23
2023-12-01T23:58:01.527Z,1241.40
